Time;durP1;ratioP1;P1;durP2;ratioP2;P2;SDS_P1;SDS_P2;PMS_P1;PMS_P2;Temp;Humidity;BMP_temperature;BMP_pressure;BME280_temperature;BME280_humidity;BME280_pressure;Samples;Min_cycle;Max_cycle;Signal;HPM_P1;HPM_P2
2022/05/27 00:00:41;;;;;;;8.00;1.92;;;20.50;60.90;;;;;;4465800;32;20121;-62
2022/05/27 00:03:08;;;;;;;5.57;1.65;;;20.50;60.80;;;;;;4465724;32;20144;-61
2022/05/27 00:05:34;;;;;;;5.57;1.90;;;20.50;60.80;;;;;;4465723;32;20121;-62
2022/05/27 00:08:00;;;;;;;4.72;1.80;;;20.50;60.90;;;;;;4464838;32;20187;-61
2022/05/27 00:10:32;;;;;;;6.20;1.90;;;20.40;60.80;;;;;;4465371;32;20137;-62
2022/05/27 00:12:57;;;;;;;7.50;1.80;;;20.40;61.70;;;;;;4466468;32;20137;-62
2022/05/27 00:15:23;;;;;;;6.07;1.98;;;20.40;60.90;;;;;;4464043;32;20268;-61
2022/05/27 00:17:49;;;;;;;6.72;1.88;;;20.40;60.80;;;;;;4466288;32;20137;-62
2022/05/27 00:20:15;;;;;;;5.13;1.67;;;20.40;60.80;;;;;;4465534;32;20172;-62
2022/05/27 00:22:41;;;;;;;5.55;1.88;;;20.40;60.80;;;;;;4465349;32;20598;-62
2022/05/27 00:25:08;;;;;;;4.63;1.77;;;20.40;60.70;;;;;;4477755;32;20570;-61
2022/05/27 00:27:34;;;;;;;5.57;1.85;;;20.40;60.80;;;;;;4477212;32;20191;-62
2022/05/27 00:29:59;;;;;;;8.23;1.70;;;20.40;60.70;;;;;;4478009;32;20275;-62
2022/05/27 00:32:25;;;;;;;6.88;1.85;;;20.40;60.80;;;;;;4463967;32;20129;-62
2022/05/27 00:34:51;;;;;;;6.57;1.70;;;20.40;60.80;;;;;;4466179;32;20143;-62
2022/05/27 00:37:17;;;;;;;5.07;1.55;;;20.40;60.80;;;;;;4465170;32;20172;-61
2022/05/27 00:39:43;;;;;;;7.15;1.88;;;20.40;60.70;;;;;;4465407;32;20129;-62
2022/05/27 00:42:10;;;;;;;5.43;1.50;;;20.40;60.70;;;;;;4465334;32;20129;-62
2022/05/27 00:44:35;;;;;;;4.20;1.80;;;20.40;60.70;;;;;;4465340;32;20140;-62
2022/05/27 00:47:15;;;;;;;5.05;1.67;;;20.40;60.70;;;;;;4466025;32;20497;-62
2022/05/27 00:49:46;;;;;;;6.57;1.77;;;20.40;60.70;;;;;;4464745;32;20178;-62
2022/05/27 00:52:16;;;;;;;4.78;1.63;;;20.40;60.80;;;;;;4465577;32;20136;-62
2022/05/27 00:54:42;;;;;;;4.63;1.55;;;20.40;60.80;;;;;;4465223;32;20275;-62
2022/05/27 00:57:17;;;;;;;5.75;1.42;;;20.40;60.80;;;;;;4465402;32;20113;-62
2022/05/27 00:59:48;;;;;;;4.88;1.70;;;20.40;60.80;;;;;;4465664;32;20140;-61
2022/05/27 01:02:13;;;;;;;5.25;1.92;;;20.30;60.70;;;;;;4464867;32;20144;-61
2022/05/27 01:04:40;;;;;;;3.70;1.60;;;20.30;60.70;;;;;;4466010;32;20175;-61
2022/05/27 01:07:06;;;;;;;4.80;1.60;;;20.40;60.80;;;;;;4464831;32;20129;-61
2022/05/27 01:09:35;;;;;;;3.63;1.40;;;20.30;60.70;;;;;;4465490;32;20509;-62
2022/05/27 01:12:16;;;;;;;4.85;1.52;;;20.40;60.70;;;;;;4465983;32;20129;-61
2022/05/27 01:15:20;;;;;;;4.93;1.15;;;20.40;60.70;;;;;;4468389;32;20122;-61
2022/05/27 01:18:08;;;;;;;3.35;1.38;;;20.30;60.70;;;;;;4469020;32;20102;-61
2022/05/27 01:20:53;;;;;;;2.47;1.30;;;20.30;60.70;;;;;;4438726;32;20557;-61
2022/05/27 01:23:24;;;;;;;5.63;1.50;;;20.30;60.70;;;;;;4467680;32;20141;-62
2022/05/27 01:25:50;;;;;;;5.80;1.70;;;20.30;60.70;;;;;;4468939;32;20141;-61
2022/05/27 01:28:38;;;;;;;4.40;1.25;;;20.30;60.70;;;;;;4467498;32;20117;-61
2022/05/27 01:31:09;;;;;;;5.72;1.75;;;20.30;60.70;;;;;;4468212;32;20122;-62
2022/05/27 01:33:38;;;;;;;4.88;1.60;;;20.30;60.70;;;;;;4468214;32;20143;-62
2022/05/27 01:36:31;;;;;;;3.67;1.60;;;20.30;60.70;;;;;;4467661;32;20143;-62
2022/05/27 01:39:09;;;;;;;4.28;1.40;;;20.30;60.70;;;;;;4468896;32;20133;-62
2022/05/27 01:42:05;;;;;;;4.20;1.40;;;20.30;60.70;;;;;;4467413;32;20680;-61
2022/05/27 01:44:56;;;;;;;4.72;1.50;;;20.30;60.70;;;;;;4467855;32;20141;-61
2022/05/27 01:47:46;;;;;;;3.72;1.30;;;20.30;60.70;;;;;;4468588;32;20147;-61
2022/05/27 01:50:36;;;;;;;5.13;1.42;;;20.30;60.70;;;;;;4466528;32;20287;-61
2022/05/27 01:53:26;;;;;;;4.97;1.45;;;20.30;60.70;;;;;;4467455;32;20141;-61
2022/05/27 01:56:10;;;;;;;5.32;1.70;;;20.20;60.70;;;;;;4468389;32;20227;-62
2022/05/27 01:58:45;;;;;;;5.55;1.33;;;20.30;60.70;;;;;;4467510;32;20137;-61
2022/05/27 02:01:19;;;;;;;3.95;1.30;;;20.20;60.70;;;;;;4467596;32;20149;-61
2022/05/27 02:03:58;;;;;;;3.90;1.23;;;20.20;60.70;;;;;;4467957;32;20148;-62
2022/05/27 02:06:24;;;;;;;3.83;1.25;;;20.20;60.60;;;;;;4467146;32;20133;-61
2022/05/27 02:09:03;;;;;;;2.95;1.10;;;20.20;60.60;;;;;;4468137;32;20121;-61
2022/05/27 02:11:30;;;;;;;5.25;1.52;;;20.20;60.60;;;;;;4467365;32;20125;-61
2022/05/27 02:14:00;;;;;;;3.85;1.30;;;20.20;60.70;;;;;;4466457;32;20144;-61
2022/05/27 02:16:38;;;;;;;4.03;1.35;;;20.20;60.70;;;;;;4467733;32;20140;-61
2022/05/27 02:19:20;;;;;;;5.32;1.70;;;20.20;60.60;;;;;;4478974;32;20527;-62
2022/05/27 02:22:08;;;;;;;2.85;1.20;;;20.20;60.60;;;;;;4467879;32;20121;-61
2022/05/27 02:24:48;;;;;;;5.75;1.48;;;20.20;60.60;;;;;;4466770;32;20119;-61
2022/05/27 02:27:43;;;;;;;3.53;1.00;;;20.20;60.60;;;;;;4467245;32;20133;-62
2022/05/27 02:30:12;;;;;;;2.17;1.20;;;20.20;60.60;;;;;;4466331;32;20133;-62
2022/05/27 02:32:45;;;;;;;3.30;1.27;;;20.20;60.60;;;;;;4466572;32;20187;-61
2022/05/27 02:35:23;;;;;;;4.65;1.20;;;20.20;60.60;;;;;;4467544;32;20515;-61
2022/05/27 02:37:52;;;;;;;4.18;1.52;;;20.20;60.60;;;;;;4467263;32;20195;-62
2022/05/27 02:40:21;;;;;;;3.90;1.40;;;20.20;60.70;;;;;;4466887;32;20140;-61
2022/05/27 02:43:05;;;;;;;4.55;1.00;;;20.20;60.70;;;;;;4479558;32;20140;-61
2022/05/27 02:45:44;;;;;;;3.17;1.38;;;20.20;60.60;;;;;;4466520;32;20143;-61
2022/05/27 02:48:29;;;;;;;3.50;1.30;;;20.20;60.60;;;;;;4467379;32;20144;-62
2022/05/27 02:51:09;;;;;;;2.90;1.08;;;20.20;60.60;;;;;;4467105;32;20264;-61
2022/05/27 02:54:02;;;;;;;4.18;1.30;;;20.10;60.60;;;;;;4466300;32;20141;-61
2022/05/27 02:56:34;;;;;;;2.90;1.50;;;20.10;60.60;;;;;;4477895;32;20147;-61
2022/05/27 02:59:01;;;;;;;3.88;1.40;;;20.10;60.60;;;;;;4482502;32;20597;-61
2022/05/27 03:01:27;;;;;;;3.47;1.20;;;20.10;60.60;;;;;;4482482;31;20125;-62
2022/05/27 03:03:53;;;;;;;3.22;1.13;;;20.10;60.60;;;;;;4482654;32;20121;-61
2022/05/27 03:06:41;;;;;;;2.75;1.15;;;20.10;60.60;;;;;;4467819;32;20140;-61
2022/05/27 03:09:10;;;;;;;2.35;1.05;;;20.10;60.60;;;;;;4482811;32;20144;-62
2022/05/27 03:12:05;;;;;;;2.80;1.20;;;20.10;60.60;;;;;;4482154;32;20144;-61
2022/05/27 03:15:09;;;;;;;2.58;1.15;;;20.10;60.50;;;;;;4482122;31;20121;-62
2022/05/27 03:18:13;;;;;;;3.75;1.23;;;20.10;60.50;;;;;;4482871;31;20180;-61
2022/05/27 03:20:49;;;;;;;4.45;1.40;;;20.10;60.50;;;;;;4463574;32;20155;-61
2022/05/27 03:23:20;;;;;;;2.65;1.05;;;20.10;60.60;;;;;;4481510;32;20129;-61
2022/05/27 03:26:11;;;;;;;3.60;1.45;;;20.10;60.60;;;;;;4482678;32;20251;-61
2022/05/27 03:28:40;;;;;;;3.88;1.17;;;20.10;60.60;;;;;;4480655;32;20129;-61
2022/05/27 03:31:42;;;;;;;3.25;1.10;;;20.10;60.60;;;;;;4482245;32;20191;-62
2022/05/27 03:34:13;;;;;;;1.60;0.88;;;20.10;60.60;;;;;;4433854;32;20129;-61
2022/05/27 03:37:20;;;;;;;2.65;0.90;;;20.10;60.60;;;;;;4472882;32;20128;-61
2022/05/27 03:40:14;;;;;;;2.72;0.95;;;20.10;60.50;;;;;;4481963;32;20140;-61
2022/05/27 03:42:41;;;;;;;3.83;1.20;;;20.10;60.50;;;;;;4482187;32;20125;-62
2022/05/27 03:45:19;;;;;;;3.72;1.25;;;20.10;60.60;;;;;;4481141;32;20156;-61
2022/05/27 03:47:46;;;;;;;3.63;1.20;;;20.10;60.50;;;;;;4482236;32;20151;-62
2022/05/27 03:50:24;;;;;;;3.47;1.10;;;20.00;60.50;;;;;;4481424;32;20113;-62
2022/05/27 03:52:53;;;;;;;2.35;0.90;;;20.10;60.60;;;;;;4481506;32;20133;-62
2022/05/27 03:55:25;;;;;;;2.63;0.88;;;20.00;60.50;;;;;;4481880;31;20141;-61
2022/05/27 03:57:51;;;;;;;2.78;1.00;;;20.10;60.50;;;;;;4480912;31;20568;-61
2022/05/27 04:00:18;;;;;;;2.15;1.00;;;20.10;60.60;;;;;;4482431;32;20573;-61
2022/05/27 04:02:44;;;;;;;2.95;1.00;;;20.00;60.50;;;;;;4481138;32;20151;-61
2022/05/27 04:05:15;;;;;;;3.88;1.02;;;20.10;60.60;;;;;;4481757;32;20259;-62
2022/05/27 04:07:40;;;;;;;3.58;1.02;;;20.00;60.50;;;;;;4480454;32;20188;-61
2022/05/27 04:10:08;;;;;;;3.13;1.00;;;20.00;60.50;;;;;;4493368;31;20166;-61
2022/05/27 04:12:35;;;;;;;2.95;0.82;;;20.00;60.50;;;;;;4467906;32;20151;-61
2022/05/27 04:15:02;;;;;;;4.72;1.00;;;20.00;60.50;;;;;;4480644;32;20157;-61
2022/05/27 04:17:30;;;;;;;2.17;0.90;;;20.00;60.50;;;;;;4481981;32;20643;-61
2022/05/27 04:20:11;;;;;;;2.90;0.95;;;20.00;60.50;;;;;;4479889;32;20148;-61
2022/05/27 04:22:37;;;;;;;1.95;0.90;;;20.00;60.50;;;;;;4481200;31;20180;-61
2022/05/27 04:25:05;;;;;;;4.82;1.08;;;20.00;60.50;;;;;;4480286;32;20117;-61
2022/05/27 04:27:31;;;;;;;3.60;1.23;;;20.00;60.50;;;;;;4480899;32;20145;-61
2022/05/27 04:29:57;;;;;;;3.78;1.33;;;20.00;60.50;;;;;;4480943;32;20129;-61
2022/05/27 04:32:25;;;;;;;3.10;1.13;;;20.00;61.40;;;;;;4480523;32;20198;-61
2022/05/27 04:34:52;;;;;;;2.30;0.77;;;20.00;60.50;;;;;;4481486;31;20141;-61
2022/05/27 04:37:19;;;;;;;4.53;1.25;;;20.00;60.50;;;;;;4480811;32;20116;-62
2022/05/27 04:39:45;;;;;;;2.65;1.40;;;20.00;60.50;;;;;;4481274;32;20129;-61
2022/05/27 04:42:11;;;;;;;4.57;1.10;;;20.00;60.50;;;;;;4480859;32;20186;-61
2022/05/27 04:44:37;;;;;;;2.28;1.00;;;20.00;60.40;;;;;;4480563;32;20202;-61
2022/05/27 04:47:04;;;;;;;2.70;0.90;;;20.00;60.50;;;;;;4481240;32;20121;-61
2022/05/27 04:52:15;;;;;;;1.83;0.77;;;20.00;60.50;;;;;;4481163;32;20144;-61
2022/05/27 04:54:41;;;;;;;2.47;0.90;;;20.00;60.50;;;;;;4480940;32;20530;-61
2022/05/27 04:57:09;;;;;;;2.40;1.05;;;20.00;60.40;;;;;;4480911;32;20137;-61
2022/05/27 04:59:39;;;;;;;3.53;0.98;;;20.00;60.40;;;;;;4493228;32;20547;-61
2022/05/27 05:02:05;;;;;;;4.13;0.90;;;20.00;60.40;;;;;;4480142;32;20140;-61
2022/05/27 05:04:36;;;;;;;3.28;1.00;;;20.00;60.40;;;;;;4481553;32;20137;-62
2022/05/27 05:07:07;;;;;;;3.75;1.02;;;20.00;60.40;;;;;;4480497;32;20109;-61
2022/05/27 05:09:37;;;;;;;3.45;1.15;;;19.90;60.40;;;;;;4493092;32;20140;-61
2022/05/27 05:12:04;;;;;;;2.88;1.05;;;20.00;60.40;;;;;;4480847;32;20147;-61
2022/05/27 05:14:30;;;;;;;4.13;0.93;;;20.00;60.40;;;;;;4477418;32;20159;-61
2022/05/27 05:16:56;;;;;;;2.80;0.88;;;20.00;60.40;;;;;;4464998;32;20203;-61
2022/05/27 05:19:22;;;;;;;2.42;0.80;;;19.90;60.40;;;;;;4462907;32;20287;-61
2022/05/27 05:21:48;;;;;;;4.07;1.10;;;19.90;60.30;;;;;;4464974;32;20226;-61
2022/05/27 05:24:14;;;;;;;3.45;1.23;;;19.90;60.30;;;;;;4466470;32;20122;-61
2022/05/27 05:26:39;;;;;;;3.15;1.23;;;20.00;60.30;;;;;;4464821;32;20113;-61
2022/05/27 05:29:06;;;;;;;3.50;1.13;;;19.90;60.20;;;;;;4466766;32;20188;-61
2022/05/27 05:31:33;;;;;;;2.60;1.10;;;19.90;60.20;;;;;;4464638;32;20521;-61
2022/05/27 05:33:59;;;;;;;3.53;1.13;;;19.90;60.30;;;;;;4465110;32;20125;-61
2022/05/27 05:36:30;;;;;;;4.35;1.20;;;19.90;60.20;;;;;;4466641;32;20146;-60
2022/05/27 05:38:57;;;;;;;2.80;0.95;;;19.90;60.20;;;;;;4492978;31;20129;-61
2022/05/27 05:41:44;;;;;;;3.53;1.10;;;19.90;60.20;;;;;;4479732;32;20129;-61
2022/05/27 05:44:11;;;;;;;2.92;1.10;;;19.90;60.20;;;;;;4477783;32;20147;-60
2022/05/27 05:46:38;;;;;;;3.53;1.10;;;19.90;60.20;;;;;;4479345;32;20160;-61
2022/05/27 05:49:07;;;;;;;4.22;1.10;;;19.90;60.10;;;;;;4479648;32;20271;-61
2022/05/27 05:51:34;;;;;;;3.58;1.08;;;19.90;60.10;;;;;;4480860;32;20136;-61
2022/05/27 05:54:00;;;;;;;3.70;1.10;;;19.90;60.10;;;;;;4479388;32;20125;-61
2022/05/27 05:56:30;;;;;;;3.55;1.33;;;19.90;60.10;;;;;;4480473;32;20113;-61
2022/05/27 05:58:57;;;;;;;6.10;1.40;;;19.90;60.10;;;;;;4482670;31;20254;-61
2022/05/27 06:01:22;;;;;;;4.55;1.20;;;19.90;60.10;;;;;;4482978;31;20270;-61
2022/05/27 06:03:48;;;;;;;4.50;1.30;;;20.00;60.10;;;;;;4482191;31;20129;-61
2022/05/27 06:06:14;;;;;;;4.30;1.20;;;19.90;60.10;;;;;;4482197;31;20140;-61
2022/05/27 06:08:40;;;;;;;4.45;1.15;;;20.00;60.10;;;;;;4483643;31;20125;-61
2022/05/27 06:11:09;;;;;;;3.20;1.13;;;20.00;60.00;;;;;;4482278;31;20136;-61
2022/05/27 06:13:41;;;;;;;4.13;1.02;;;20.00;60.00;;;;;;4482958;31;20481;-61
2022/05/27 06:16:09;;;;;;;3.70;1.35;;;20.00;60.00;;;;;;4494869;31;20338;-61
2022/05/27 06:18:35;;;;;;;3.65;1.05;;;20.00;59.90;;;;;;4494806;31;20132;-61
2022/05/27 06:21:01;;;;;;;4.60;1.05;;;20.00;59.90;;;;;;4483480;32;20180;-61
2022/05/27 06:23:28;;;;;;;4.25;1.27;;;20.00;59.80;;;;;;4494199;31;20144;-61
2022/05/27 06:25:56;;;;;;;3.67;1.15;;;20.00;59.90;;;;;;4483717;31;20125;-61
2022/05/27 06:36:39;;;;;;;4.38;1.33;;;20.10;59.70;;;;;;4474126;31;20157;-61
2022/05/27 06:39:06;;;;;;;5.45;1.30;;;20.10;59.70;;;;;;4467362;32;20292;-61
2022/05/27 06:41:32;;;;;;;3.47;1.30;;;20.10;59.70;;;;;;4478264;31;20125;-61
2022/05/27 06:43:58;;;;;;;3.60;1.20;;;20.10;60.40;;;;;;4466710;32;20137;-61
2022/05/27 06:46:23;;;;;;;6.75;1.30;;;20.20;59.60;;;;;;4466633;32;20133;-60
2022/05/27 06:48:49;;;;;;;4.40;1.40;;;20.10;59.50;;;;;;4466240;32;20211;-61
2022/05/27 06:51:17;;;;;;;4.00;1.30;;;20.20;59.60;;;;;;4469053;31;20246;-61
2022/05/27 06:53:45;;;;;;;5.28;1.42;;;20.20;59.50;;;;;;4493538;31;20198;-61
2022/05/27 06:56:11;;;;;;;2.75;1.10;;;20.20;60.00;;;;;;4482927;31;20133;-61
2022/05/27 06:58:38;;;;;;;3.92;1.30;;;20.20;59.50;;;;;;4482357;31;20214;-61
2022/05/27 07:01:04;;;;;;;3.20;1.15;;;20.20;59.60;;;;;;4482466;31;20271;-61
2022/05/27 07:03:30;;;;;;;3.08;1.48;;;20.20;59.40;;;;;;4482675;32;20163;-60
2022/05/27 07:05:56;;;;;;;4.93;1.50;;;20.20;59.40;;;;;;4482091;32;20203;-60
2022/05/27 07:08:22;;;;;;;9.73;1.60;;;20.20;59.40;;;;;;4482835;32;20264;-60
2022/05/27 07:10:48;;;;;;;3.75;1.27;;;20.30;60.30;;;;;;4481638;32;20485;-60
2022/05/27 07:13:14;;;;;;;4.25;1.20;;;20.30;59.40;;;;;;4482903;32;20589;-60
2022/05/27 07:15:41;;;;;;;3.70;1.35;;;20.30;59.40;;;;;;4481923;32;20125;-61
2022/05/27 07:18:08;;;;;;;6.30;1.83;;;20.40;59.20;;;;;;4482344;32;20290;-61
2022/05/27 07:20:38;;;;;;;7.32;1.70;;;20.50;59.20;;;;;;4482228;31;20133;-60
2022/05/27 07:23:04;;;;;;;9.48;1.85;;;20.50;59.10;;;;;;4481261;31;20140;-60
2022/05/27 07:25:35;;;;;;;8.48;1.60;;;20.50;59.00;;;;;;4480689;31;20117;-60
2022/05/27 07:28:08;;;;;;;6.55;1.83;;;20.50;58.80;;;;;;4481053;31;20117;-60
2022/05/27 07:30:35;;;;;;;5.47;2.20;;;20.50;58.70;;;;;;4482152;31;20113;-61
2022/05/27 07:33:02;;;;;;;8.27;2.03;;;20.50;58.50;;;;;;4481394;31;20121;-60
2022/05/27 07:35:28;;;;;;;8.15;2.63;;;20.60;58.70;;;;;;4481775;31;20610;-61
2022/05/27 07:37:54;;;;;;;6.45;2.30;;;20.60;58.40;;;;;;4482089;32;20160;-60
2022/05/27 07:40:21;;;;;;;8.50;1.88;;;20.60;58.20;;;;;;4481337;31;20117;-61
2022/05/27 07:42:48;;;;;;;6.38;1.80;;;20.60;58.00;;;;;;4482108;31;20128;-61
2022/05/27 07:45:17;;;;;;;4.88;1.70;;;20.60;57.80;;;;;;4480982;31;20151;-61
2022/05/27 07:47:43;;;;;;;9.63;2.17;;;20.60;57.60;;;;;;4482207;32;20624;-61
2022/05/27 07:50:11;;;;;;;6.53;2.00;;;20.70;57.70;;;;;;4480394;32;20132;-60
2022/05/27 07:52:37;;;;;;;6.30;2.20;;;20.70;57.50;;;;;;4481381;31;20140;-61
2022/05/27 07:55:05;;;;;;;9.10;2.47;;;20.70;57.30;;;;;;4481889;32;20140;-60
2022/05/27 07:57:31;;;;;;;9.95;2.75;;;20.60;57.10;;;;;;4481074;31;20283;-61
2022/05/27 08:00:05;;;;;;;12.50;2.35;;;20.60;57.00;;;;;;4482325;32;20350;-61
2022/05/27 08:02:32;;;;;;;9.07;2.17;;;20.60;56.90;;;;;;4480981;32;20129;-61
2022/05/27 08:04:58;;;;;;;10.98;2.47;;;20.60;56.90;;;;;;4481753;32;20133;-61
2022/05/27 08:07:26;;;;;;;10.70;2.67;;;20.60;56.80;;;;;;4481190;32;20143;-61
2022/05/27 08:09:52;;;;;;;10.48;2.55;;;20.60;56.80;;;;;;4481138;31;20148;-60
2022/05/27 08:12:18;;;;;;;7.40;2.33;;;20.60;56.70;;;;;;4481627;32;20121;-59
2022/05/27 08:14:44;;;;;;;8.70;2.30;;;20.60;56.50;;;;;;4480744;32;20480;-60
2022/05/27 08:17:10;;;;;;;9.05;2.92;;;20.60;56.50;;;;;;4482186;32;20210;-60
2022/05/27 08:19:36;;;;;;;10.88;2.80;;;20.70;56.40;;;;;;4480740;32;20113;-60
2022/05/27 08:22:03;;;;;;;10.88;2.47;;;20.70;56.30;;;;;;4480971;32;20489;-60
2022/05/27 08:24:29;;;;;;;10.82;2.70;;;20.70;56.20;;;;;;4481219;32;20272;-60
2022/05/27 08:26:54;;;;;;;9.38;2.53;;;20.70;55.90;;;;;;4481019;32;20146;-60
2022/05/27 08:29:20;;;;;;;9.05;2.58;;;20.70;55.80;;;;;;4481438;32;20154;-60
2022/05/27 08:31:46;;;;;;;9.10;2.47;;;20.80;55.80;;;;;;4480546;32;20125;-60
2022/05/27 08:39:47;;;;;;;9.88;2.42;;;20.80;55.30;;;;;;4480798;31;20802;-60
2022/05/27 08:42:20;;;;;;;10.55;2.45;;;20.80;55.40;;;;;;4477045;31;20140;-59
2022/05/27 08:44:56;;;;;;;8.40;2.78;;;20.80;55.20;;;;;;4478031;31;20589;-60
2022/05/27 08:47:28;;;;;;;11.27;2.40;;;20.80;55.10;;;;;;4493666;31;20137;-60
2022/05/27 08:50:18;;;;;;;7.18;2.00;;;20.80;55.00;;;;;;4480605;32;20155;-60
2022/05/27 08:52:54;;;;;;;10.65;2.60;;;20.80;54.80;;;;;;4480569;32;20133;-60
2022/05/27 09:01:26;;;;;;;12.75;2.92;;;20.70;54.50;;;;;;4480577;32;20275;-60
2022/05/27 09:04:17;;;;;;;9.05;2.60;;;20.80;54.60;;;;;;4481288;32;20190;-60
2022/05/27 09:06:48;;;;;;;14.75;2.88;;;20.70;54.30;;;;;;4480242;32;20470;-60
2022/05/27 09:09:26;;;;;;;15.07;2.78;;;20.70;54.30;;;;;;4481260;32;20143;-60
2022/05/27 09:12:04;;;;;;;10.05;2.90;;;20.80;54.30;;;;;;4480708;32;20148;-60
2022/05/27 09:14:31;;;;;;;10.55;2.63;;;20.70;54.20;;;;;;4480427;32;20342;-60
2022/05/27 09:17:07;;;;;;;12.23;3.10;;;20.70;54.10;;;;;;4481279;32;20267;-61
2022/05/27 09:20:04;;;;;;;11.82;2.80;;;20.80;53.90;;;;;;4479917;32;20129;-60
2022/05/27 09:22:49;;;;;;;11.43;2.95;;;20.70;53.90;;;;;;4480442;32;20179;-60
2022/05/27 09:25:32;;;;;;;10.52;2.72;;;20.70;54.00;;;;;;4475413;32;20219;-60
2022/05/27 09:27:58;;;;;;;11.57;2.90;;;20.70;54.00;;;;;;4477712;32;20133;-61
2022/05/27 09:30:27;;;;;;;11.52;2.88;;;20.70;54.00;;;;;;4480675;32;20289;-61
2022/05/27 09:33:00;;;;;;;11.98;3.03;;;20.60;53.80;;;;;;4481644;31;20164;-61
2022/05/27 09:35:34;;;;;;;13.50;3.15;;;20.60;53.60;;;;;;4483410;31;20199;-61
2022/05/27 09:38:04;;;;;;;14.07;2.55;;;20.60;53.70;;;;;;4484058;31;20168;-60
2022/05/27 09:40:42;;;;;;;14.48;2.88;;;20.60;53.60;;;;;;4482818;32;20187;-60
2022/05/27 09:43:13;;;;;;;12.77;3.58;;;20.70;54.50;;;;;;4483932;31;20141;-60
2022/05/27 09:45:40;;;;;;;12.07;2.83;;;20.60;53.50;;;;;;4483282;32;20148;-61
2022/05/27 09:48:07;;;;;;;16.98;3.15;;;20.60;53.60;;;;;;4483471;31;20121;-60
2022/05/27 09:50:43;;;;;;;15.20;2.92;;;20.60;54.50;;;;;;4483408;32;20137;-60
2022/05/27 09:53:17;;;;;;;13.93;2.95;;;20.60;53.40;;;;;;4482519;32;20117;-61
2022/05/27 09:55:51;;;;;;;13.32;3.13;;;20.60;53.30;;;;;;4484267;31;20145;-62
2022/05/27 09:58:27;;;;;;;12.20;2.80;;;20.60;53.40;;;;;;4481915;32;20140;-62
2022/05/27 10:00:54;;;;;;;14.18;3.03;;;20.60;53.30;;;;;;4480846;31;20243;-61
2022/05/27 10:03:39;;;;;;;8.88;2.47;;;20.60;54.20;;;;;;4483455;31;20121;-61
2022/05/27 10:06:19;;;;;;;11.38;2.55;;;20.60;53.20;;;;;;4482836;31;20282;-60
2022/05/27 10:08:57;;;;;;;14.10;3.00;;;20.60;53.20;;;;;;4483822;31;20198;-61
2022/05/27 10:11:27;;;;;;;13.02;3.22;;;20.60;53.10;;;;;;4495114;31;20137;-61
2022/05/27 10:14:18;;;;;;;14.57;3.05;;;20.60;53.20;;;;;;4482087;32;20151;-61
2022/05/27 10:16:59;;;;;;;13.65;3.38;;;20.60;53.20;;;;;;4483535;32;20132;-60
2022/05/27 10:19:26;;;;;;;10.70;3.33;;;20.60;53.20;;;;;;4482651;32;20125;-60
2022/05/27 10:21:59;;;;;;;13.75;3.03;;;20.60;53.30;;;;;;4494861;31;20578;-60
2022/05/27 10:24:28;;;;;;;13.70;3.13;;;20.60;53.30;;;;;;4482136;31;20152;-60
2022/05/27 10:27:11;;;;;;;15.32;3.63;;;20.60;53.20;;;;;;4482128;31;20250;-60
2022/05/27 10:29:55;;;;;;;11.13;2.78;;;20.60;53.10;;;;;;4482832;31;20195;-61
2022/05/27 10:32:31;;;;;;;17.70;3.13;;;20.60;52.90;;;;;;4466531;31;20680;-60
2022/05/27 10:34:59;;;;;;;17.80;3.22;;;20.60;53.00;;;;;;4466123;32;20133;-61
2022/05/27 10:37:59;;;;;;;19.02;3.42;;;20.60;52.90;;;;;;4468295;32;20172;-60
2022/05/27 10:40:42;;;;;;;14.52;3.25;;;20.70;52.80;;;;;;4465613;32;20799;-61
2022/05/27 10:43:42;;;;;;;11.55;2.22;;;20.70;52.80;;;;;;4465857;32;20149;-61
2022/05/27 10:46:15;;;;;;;13.70;2.97;;;20.70;52.80;;;;;;4465779;32;20137;-61
2022/05/27 10:49:06;;;;;;;14.25;3.28;;;20.70;52.80;;;;;;4477850;31;20152;-61
2022/05/27 10:51:34;;;;;;;10.40;2.78;;;20.70;52.70;;;;;;4467393;32;20144;-62
2022/05/27 10:54:09;;;;;;;10.85;2.60;;;20.60;52.60;;;;;;4466586;32;20139;-61
2022/05/27 11:03:18;;;;;;;12.07;2.63;;;20.70;52.40;;;;;;4467863;32;20137;-61
2022/05/27 11:06:03;;;;;;;9.73;2.58;;;20.70;52.20;;;;;;4465526;32;20559;-61
2022/05/27 11:08:33;;;;;;;8.95;2.58;;;20.70;52.30;;;;;;4466403;32;20303;-61
2022/05/27 11:11:06;;;;;;;12.80;2.80;;;20.70;52.30;;;;;;4476970;31;20736;-61
2022/05/27 11:16:49;;;;;;;8.95;2.45;;;20.70;52.20;;;;;;4468126;32;20148;-60
2022/05/27 11:19:45;;;;;;;11.57;2.90;;;20.70;52.20;;;;;;4464777;32;20133;-61
2022/05/27 11:22:35;;;;;;;7.57;2.33;;;20.70;52.20;;;;;;4467528;32;20129;-61
2022/05/27 11:25:23;;;;;;;7.30;2.40;;;20.70;52.10;;;;;;4465915;32;20129;-60
2022/05/27 11:28:16;;;;;;;9.50;2.53;;;20.70;52.10;;;;;;4465500;31;20140;-61
2022/05/27 11:30:45;;;;;;;8.82;2.47;;;20.70;51.90;;;;;;4465686;32;20279;-61
2022/05/27 11:33:24;;;;;;;6.47;2.38;;;20.70;52.00;;;;;;4467539;32;20180;-60
2022/05/27 11:36:12;;;;;;;9.13;2.67;;;20.80;52.00;;;;;;4464642;32;20117;-63
2022/05/27 11:38:56;;;;;;;12.77;3.17;;;20.70;52.00;;;;;;4467012;32;20712;-59
2022/05/27 11:41:51;;;;;;;9.57;2.75;;;20.70;52.00;;;;;;4465029;32;20387;-61
2022/05/27 11:44:52;;;;;;;11.15;2.70;;;20.80;51.80;;;;;;4474287;31;20136;-60
2022/05/27 11:47:33;;;;;;;8.43;2.70;;;20.70;51.90;;;;;;4459020;32;20136;-62
2022/05/27 11:49:58;;;;;;;11.65;2.72;;;20.70;51.90;;;;;;4465023;32;20189;-61
2022/05/27 11:53:10;;;;;;;9.23;2.50;;;20.80;51.90;;;;;;4464629;32;20248;-60
2022/05/27 11:55:54;;;;;;;10.70;2.65;;;20.80;51.80;;;;;;4463246;32;20140;-61
2022/05/27 11:58:30;;;;;;;8.05;2.38;;;20.80;51.90;;;;;;4464532;32;20117;-60
2022/05/27 12:01:05;;;;;;;9.52;2.22;;;20.80;51.80;;;;;;4469316;31;20137;-60
2022/05/27 12:03:41;;;;;;;9.32;2.00;;;20.80;51.80;;;;;;4481494;31;20215;-59
2022/05/27 12:06:11;;;;;;;10.48;2.30;;;20.80;51.90;;;;;;4479187;31;20604;-60
2022/05/27 12:08:41;;;;;;;11.20;3.10;;;20.80;51.80;;;;;;4481149;32;20148;-60
2022/05/27 12:11:16;;;;;;;13.70;2.05;;;20.80;51.80;;;;;;4480699;31;20194;-61
2022/05/27 12:13:51;;;;;;;9.68;2.47;;;20.80;51.80;;;;;;4480944;32;20676;-60
2022/05/27 12:16:29;;;;;;;12.30;2.55;;;20.80;51.80;;;;;;4482244;31;20137;-60
2022/05/27 12:18:59;;;;;;;9.50;2.67;;;20.80;51.70;;;;;;4479975;31;20116;-60
2022/05/27 12:21:30;;;;;;;9.60;2.55;;;20.80;51.70;;;;;;4481487;31;20152;-60
2022/05/27 12:24:17;;;;;;;11.15;2.40;;;20.80;51.70;;;;;;4479794;31;20117;-60
2022/05/27 12:26:44;;;;;;;12.27;2.30;;;20.80;51.70;;;;;;4480461;31;20141;-60
2022/05/27 12:29:13;;;;;;;12.98;3.05;;;20.80;52.60;;;;;;4480798;31;20128;-61
2022/05/27 12:31:40;;;;;;;12.73;2.78;;;20.80;51.60;;;;;;4480170;31;20137;-60
2022/05/27 12:34:28;;;;;;;10.13;2.35;;;20.80;51.70;;;;;;4481576;31;20197;-61
2022/05/27 12:37:22;;;;;;;10.77;2.83;;;20.80;51.80;;;;;;4480436;31;20266;-61
2022/05/27 12:39:49;;;;;;;11.18;2.80;;;20.90;51.80;;;;;;4480618;31;20125;-62
2022/05/27 12:42:35;;;;;;;14.13;2.40;;;20.80;51.70;;;;;;4480939;31;20129;-61
2022/05/27 12:45:38;;;;;;;12.98;2.45;;;20.80;51.70;;;;;;4480985;31;20287;-61
2022/05/27 12:48:05;;;;;;;10.90;2.70;;;20.80;51.60;;;;;;4480554;31;20140;-61
2022/05/27 12:50:37;;;;;;;13.77;2.90;;;20.80;51.60;;;;;;4479931;31;20133;-61
2022/05/27 12:53:21;;;;;;;14.57;2.75;;;20.90;51.60;;;;;;4482168;31;20125;-61
2022/05/27 13:02:18;;;;;;;10.75;3.08;;;20.90;51.60;;;;;;4479991;32;20124;-62
2022/05/27 13:04:46;;;;;;;15.27;3.47;;;20.90;51.50;;;;;;4481397;32;20129;-61
2022/05/27 13:07:14;;;;;;;10.23;3.30;;;20.90;51.60;;;;;;4480127;32;20274;-61
2022/05/27 13:09:43;;;;;;;10.63;2.58;;;20.80;51.60;;;;;;4483524;32;20133;-61
2022/05/27 13:12:30;;;;;;;14.20;3.72;;;20.80;51.60;;;;;;4484700;31;20125;-62
2022/05/27 13:15:06;;;;;;;11.40;3.58;;;20.80;51.50;;;;;;4483324;32;20141;-61
2022/05/27 13:17:42;;;;;;;15.90;3.60;;;20.90;51.60;;;;;;4484382;32;20133;-61
2022/05/27 13:20:25;;;;;;;12.63;3.67;;;20.90;51.50;;;;;;4485803;31;20451;-62
2022/05/27 13:23:14;;;;;;;12.10;3.28;;;20.90;51.60;;;;;;4483163;31;20151;-62
2022/05/27 13:26:01;;;;;;;14.30;2.70;;;20.90;51.30;;;;;;4484634;32;20155;-61
2022/05/27 13:28:56;;;;;;;10.75;2.92;;;20.90;51.40;;;;;;4483608;31;20113;-61
2022/05/27 13:31:31;;;;;;;12.65;2.90;;;20.90;51.30;;;;;;4477639;32;20585;-61
2022/05/27 13:34:07;;;;;;;8.57;2.50;;;20.90;51.30;;;;;;4496056;31;20148;-62
2022/05/27 13:36:38;;;;;;;15.25;3.15;;;20.90;52.10;;;;;;4482738;31;20120;-61
2022/05/27 13:39:09;;;;;;;7.68;2.47;;;20.90;51.20;;;;;;4483737;31;20151;-61
2022/05/27 13:41:47;;;;;;;14.65;3.80;;;20.90;51.20;;;;;;4482948;31;20161;-61
2022/05/27 13:44:17;;;;;;;11.43;2.67;;;20.90;51.10;;;;;;4482900;31;20272;-61
2022/05/27 13:46:59;;;;;;;11.52;2.70;;;20.90;51.10;;;;;;4484289;31;20129;-61
2022/05/27 13:49:31;;;;;;;10.32;2.53;;;20.90;51.00;;;;;;4481774;32;20143;-61
2022/05/27 13:51:59;;;;;;;9.55;2.33;;;20.90;51.10;;;;;;4483717;32;20199;-61
2022/05/27 13:54:38;;;;;;;12.05;2.78;;;20.90;51.00;;;;;;4483184;32;20137;-61